• Join FlightAware (Why Join?)
  • Login
  • US Flag 
12:26PM EDT


 

Airport Tracker/Info


-or-


 

Live Flight TrackerFlight Track Log ✈ N99PN ✈ 18-May-2014 ✈ KORL - MYAM / MHH

Flight Track Log - Related Links

Times and Time Zones

All times are in EDT time to prevent confusion due to time zone crossing. See the N99PN flight status page for this flight to view local times or setup timezone preferences in your user account.

Time Position Orientation Groundspeed Altitude Reporting Facility
EDT Latitude Longitude Course Direction KTS MPH feet Rate Location/Type
12:55PM 28.5500 -81.3167 41° Northeast 101 116 500  Level Orlando TRACON
12:56PM 28.5667 -81.3000 41° Northeast 117 135 1,200 780 Climbing Orlando TRACON
12:57PM 28.5833 -81.2667 60° Northeast 117 135 1,800 600 Climbing Orlando TRACON
12:58PM 28.5833 -81.2333 90° East 130 150 2,500 600 Climbing Orlando TRACON
12:59PM 28.5833 -81.1833 90° East 132 152 3,000 360 Climbing Orlando TRACON
01:00PM 28.5833 -81.1500 90° East 141 162 3,300 420 Climbing Orlando TRACON
01:01PM 28.5500 -81.1167 139° Southeast 139 160 3,900 600 Climbing Orlando TRACON
01:02PM 28.5167 -81.1167 180° South 131 151 4,600 600 Climbing Orlando TRACON
01:03PM 28.4833 -81.0833 139° Southeast 137 158 5,200 540 Climbing Orlando TRACON
01:04PM 28.4500 -81.0667 156° South 144 166 5,700 540 Climbing Orlando TRACON
01:06PM 28.4142 -81.0261 135° Southeast 140 161 6,600 540 Climbing Miami Center
01:07PM 28.3894 -80.9919 129° Southeast 140 161 7,200 540 Climbing Miami Center
01:08PM 28.3644 -80.9558 128° Southeast 142 163 7,800 720 Climbing Miami Center
01:09PM 28.3336 -80.9144 130° Southeast 142 163 8,700 720 Climbing Miami Center
01:10PM 28.3081 -80.8814 131° Southeast 141 162 9,300 540 Climbing Miami Center
01:11PM 28.2833 -80.8461 129° Southeast 141 162 9,900 540 Climbing Miami Center
01:12PM 28.2644 -80.8072 119° Southeast 141 162 10,500 480 Climbing Miami Center
01:13PM 28.2447 -80.7683 120° Southeast 141 162 11,000 480 Climbing Miami Center
01:14PM 28.2225 -80.7278 122° Southeast 146 168 11,600 480 Climbing Miami Center
01:15PM 28.1972 -80.6769 119° Southeast 152 175 12,100 240 Climbing Miami Center
01:16PM 28.1744 -80.6292 118° Southeast 167 192 12,100  Level Miami Center
01:17PM 28.1511 -80.5800 118° Southeast 174 200 12,100  Level Miami Center
01:18PM 28.1264 -80.5300 119° Southeast 180 207 12,100  Level Miami Center
01:19PM 28.1011 -80.4797 120° Southeast 181 208 12,100  Level Miami Center
01:20PM 28.0761 -80.4275 118° Southeast 185 213 12,100  Level Miami Center
01:21PM 28.0461 -80.3669 119° Southeast 185 213 12,100  Level Miami Center
01:22PM 28.0214 -80.3158 119° Southeast 185 213 12,100  Level Miami Center
01:23PM 27.9986 -80.2628 116° Southeast 186 214 12,100  Level Miami Center
01:24PM 27.9758 -80.2111 117° Southeast 185 213 12,100  Level Miami Center
01:25PM 27.9517 -80.1578 117° Southeast 187 215 12,100  Level Miami Center
01:26PM 27.9289 -80.1053 116° Southeast 187 215 12,100  Level Miami Center
01:27PM 27.9028 -80.0406 115° Southeast 188 216 12,100  Level Miami Center
01:28PM 27.8819 -79.9875 114° Southeast 188 216 12,100  Level Miami Center
01:29PM 27.8592 -79.9319 115° Southeast 186 214 12,100  Level Miami Center
01:30PM 27.8356 -79.8758 115° Southeast 187 215 12,200  Climbing Miami Center
01:31PM 27.8125 -79.8197 115° Southeast 188 216 12,100 -60 Descending Miami Center
01:33PM 27.7886 -79.7628 115° Southeast 189 217 12,100  Level Miami Center
01:34PM 27.7653 -79.7078 116° Southeast 189 217 12,100 -120 Level Miami Center
01:35PM 27.7392 -79.6492 117° Southeast 196 226 11,900 -180 Descending Miami Center
01:36PM 27.7133 -79.5917 117° Southeast 196 226 11,800 -120 Descending Miami Center
01:37PM 27.6883 -79.5400 119° Southeast 195 224 11,700 -120 Descending Miami Center
01:38PM 27.6636 -79.4844 117° Southeast 193 222 11,600 -60 Descending Miami Center
01:39PM 27.6361 -79.4300 120° Southeast 191 220 11,600  Level Miami Center
01:40PM 27.6111 -79.3761 118° Southeast 190 219 11,700  Climbing Miami Center
01:41PM 27.5850 -79.3239 119° Southeast 186 214 11,700  Level Miami Center
01:42PM 27.5600 -79.2703 118° Southeast 184 212 11,700  Level Miami Center
01:43PM 27.5336 -79.2156 119° Southeast 189 217 11,700  Level Miami Center
01:44PM 27.5064 -79.1617 120° Southeast 188 216 11,700  Level Miami Center
01:45PM 27.4800 -79.1083 119° Southeast 188 216 11,700  Level Miami Center
01:46PM 27.4550 -79.0586 120° Southeast 187 215 11,700  Level Miami Center
01:47PM 27.4258 -79.0044 121° Southeast 191 220 11,700 -60 Level Miami Center
01:48PM 27.3986 -78.9519 120° Southeast 188 216 11,600  Descending Miami Center
01:49PM 27.3717 -78.8989 120° Southeast 189 217 11,700  Climbing Miami Center
01:50PM 27.3431 -78.8469 122° Southeast 187 215 11,600 -60 Descending Miami Center
01:51PM 27.3158 -78.7944 120° Southeast 187 215 11,600  Level Miami Center
01:52PM 27.2861 -78.7422 123° Southeast 188 216 11,600  Level Miami Center
01:53PM 27.2586 -78.6906 121° Southeast 187 215 11,600  Level Miami Center
01:54PM 27.2361 -78.6489 121° Southeast 184 212 11,600  Level Miami Center
01:55PM 27.2036 -78.5903 122° Southeast 185 213 11,600  Level Miami Center
01:56PM 27.1761 -78.5392 121° Southeast 185 213 11,600  Level Miami Center
01:57PM 27.1508 -78.4917 121° Southeast 182 209 11,700  Climbing Miami Center
01:58PM 27.1219 -78.4411 123° Southeast 182 209 11,600 -60 Descending Miami Center
01:59PM 27.0969 -78.3939 121° Southeast 182 209 11,600 -360 Level Miami Center
02:01PM 27.0592 -78.3300 124° Southeast 196 226 10,900 -540 Descending Miami Center
02:02PM 27.0267 -78.2778 125° Southeast 200 230 10,500 -360 Descending Miami Center
02:03PM 26.9950 -78.2269 125° Southeast 200 230 10,200 -420 Descending Miami Center
02:04PM 26.9597 -78.1725 126° Southeast 199 229 9,700 -480 Descending Miami Center
02:05PM 26.9269 -78.1244 127° Southeast 199 229 9,300 -360 Descending Miami Center
02:06PM 26.9014 -78.0675 117° Southeast 197 227 9,000 -480 Descending Miami Center
02:07PM 26.8689 -78.0133 124° Southeast 197 227 8,400 1,200 Descending Miami Center
02:08PM 26.8367 -77.9583 123° Southeast 198 228 11,500 -780 Climbing Miami Center
02:09PM 26.8067 -77.9081 124° Southeast 198 228 6,900  Descending Miami Center
02:10PM 26.7775 -77.8550 122° Southeast 198 228 11,500 4,380 Climbing Miami Center